Tropical Cyclones
[Index]
Main Index Home Page Stock Weather Photos Extreme Storms Discussion Storm News and Storm Chasing Reports Tropical Cyclones / Hurricanes / Typhoons Weather Data and Links Wild Fires / Bushfires Weather Observation Techniques Weather Picture Catalogue Tornado Pictures and Reports Stock Video Footage and DVDs for sale
Season 2014-2015 Tropical Cyclone RAQUEL Track Map
Season 2014-2015 Summaries: [BoM-AU] [JTWC-AU] [JTWC-SIO] [JTWC-SPAC] [JTWC-SH]
<<- Previous TC | JTWC 2014-2015 Season | Next TC ->>

click for intensity scale information  Lat/long Grid: Show Hide

 Date Labels: Show Hide

Joint Typhoon Warning Centre Cyclone Data

Name: RAQUEL

28 Jun 2015 12:00 UTC to 04 Jul 2015 06:00 UTC

    date/time    lat    long     hPa   cat  kts
2015-06-28 12    4.0   163.4    1007         20          
2015-06-28 18    4.1   163.0    1005         25          
2015-06-29 00    4.2   162.3    1004         25          
2015-06-29 03    4.1   162.0    1004         25          
2015-06-29 06    3.8   161.9    1004         25          
2015-06-29 12    3.8   161.7    1004         25          
2015-06-29 18    4.0   161.4    1004         25          
2015-06-30 00    4.3   161.0    1000         30          
2015-06-30 06    4.8   160.6    1000         30          
2015-06-30 12    5.3   160.3     996         35          
2015-06-30 18    6.0   160.1     993    1    40          
2015-06-30 21    6.3   160.0     993    1    40          
2015-07-01 00    6.5   159.7     989    1    45          
2015-07-01 06    6.8   159.2     989    1    45          
2015-07-01 12    7.0   159.1     989    1    45          
2015-07-01 18    6.8   159.3     989    1    45          
2015-07-02 00    6.5   159.8     993    1    40          
2015-07-02 06    6.4   160.3     996         35          
2015-07-02 12    6.4   160.6     996         35          
2015-07-02 18    6.6   160.8     996         35          
2015-07-03 00    6.9   160.9     996         35          
2015-07-03 06    7.4   160.8     996         35          
2015-07-03 12    7.7   160.5    1000         30          
2015-07-03 18    7.8   160.2    1000         30          
2015-07-04 00    7.9   159.9    1004         25          
2015-07-04 06    8.0   159.5    1007         20          
Winds are 1-min average.

Tropical cyclone tracks developed by Michael Bath using data from the Joint Typhoon Warning Centre Best Tracks and Google Maps.


[Australian Severe Weather index] [Copyright Notice] [Email Contacts] [Search This Site] [Privacy Policy]
Document: tropical_cyclone_raquel.htm Updated: 28 June 2017